sensor_id;sensor_type;location;lat;lon;timestamp;pressure;altitude;pressure_sealevel;temperature;humidity
11621;BME280;5866;49.094;11.900;2023-04-26T00:00:26;96096.31;;;4.89;100.00
11621;BME280;5866;49.094;11.900;2023-04-26T00:02:57;96092.44;;;5.73;100.00
11621;BME280;5866;49.094;11.900;2023-04-26T00:05:26;96079.06;;;6.33;100.00
11621;BME280;5866;49.094;11.900;2023-04-26T00:07:55;96088.66;;;6.53;100.00
11621;BME280;5866;49.094;11.900;2023-04-26T00:10:23;96090.00;;;6.67;100.00
11621;BME280;5866;49.094;11.900;2023-04-26T00:12:51;96098.34;;;5.95;100.00
11621;BME280;5866;49.094;11.900;2023-04-26T00:15:18;96094.19;;;6.40;100.00
11621;BME280;5866;49.094;11.900;2023-04-26T00:17:46;96094.75;;;6.44;100.00
11621;BME280;5866;49.094;11.900;2023-04-26T00:20:15;96100.28;;;6.03;100.00
11621;BME280;5866;49.094;11.900;2023-04-26T00:22:42;96100.44;;;5.61;100.00
11621;BME280;5866;49.094;11.900;2023-04-26T00:25:10;96104.91;;;5.71;100.00
11621;BME280;5866;49.094;11.900;2023-04-26T00:27:39;96098.00;;;5.70;100.00
11621;BME280;5866;49.094;11.900;2023-04-26T00:30:07;96092.53;;;6.11;100.00
11621;BME280;5866;49.094;11.900;2023-04-26T00:32:35;96085.03;;;6.35;100.00
11621;BME280;5866;49.094;11.900;2023-04-26T00:35:03;96091.16;;;6.07;100.00
11621;BME280;5866;49.094;11.900;2023-04-26T00:37:32;96085.34;;;6.32;100.00
11621;BME280;5866;49.094;11.900;2023-04-26T00:40:00;96088.63;;;6.24;100.00
11621;BME280;5866;49.094;11.900;2023-04-26T00:42:27;96083.38;;;6.15;100.00
11621;BME280;5866;49.094;11.900;2023-04-26T00:44:55;96085.03;;;6.16;100.00
11621;BME280;5866;49.094;11.900;2023-04-26T00:47:23;96091.69;;;6.01;100.00
11621;BME280;5866;49.094;11.900;2023-04-26T00:49:51;96092.44;;;5.63;100.00
11621;BME280;5866;49.094;11.900;2023-04-26T00:52:18;96094.09;;;5.64;100.00
11621;BME280;5866;49.094;11.900;2023-04-26T00:54:48;96089.41;;;5.68;100.00
11621;BME280;5866;49.094;11.900;2023-04-26T00:57:15;96095.03;;;5.53;100.00
11621;BME280;5866;49.094;11.900;2023-04-26T00:59:43;96095.66;;;5.36;100.00
11621;BME280;5866;49.094;11.900;2023-04-26T01:02:10;96096.66;;;5.35;100.00
11621;BME280;5866;49.094;11.900;2023-04-26T01:04:38;96093.16;;;5.65;100.00
11621;BME280;5866;49.094;11.900;2023-04-26T01:07:07;96095.09;;;5.73;100.00
11621;BME280;5866;49.094;11.900;2023-04-26T01:09:35;96101.44;;;5.70;100.00
11621;BME280;5866;49.094;11.900;2023-04-26T01:12:05;96099.50;;;5.62;100.00
11621;BME280;5866;49.094;11.900;2023-04-26T01:14:33;96099.34;;;5.54;100.00
11621;BME280;5866;49.094;11.900;2023-04-26T01:17:02;96109.72;;;5.46;100.00
11621;BME280;5866;49.094;11.900;2023-04-26T01:19:30;96101.47;;;5.30;100.00
11621;BME280;5866;49.094;11.900;2023-04-26T01:21:58;96108.56;;;5.09;100.00
11621;BME280;5866;49.094;11.900;2023-04-26T01:24:27;96107.97;;;5.26;100.00
11621;BME280;5866;49.094;11.900;2023-04-26T01:26:56;96107.16;;;5.35;100.00
11621;BME280;5866;49.094;11.900;2023-04-26T01:29:23;96113.91;;;5.28;100.00
11621;BME280;5866;49.094;11.900;2023-04-26T01:31:52;96105.88;;;5.20;100.00
11621;BME280;5866;49.094;11.900;2023-04-26T01:34:19;96102.94;;;5.14;100.00
11621;BME280;5866;49.094;11.900;2023-04-26T01:36:47;96109.69;;;5.07;100.00
11621;BME280;5866;49.094;11.900;2023-04-26T01:39:14;96101.00;;;5.16;100.00
11621;BME280;5866;49.094;11.900;2023-04-26T01:41:43;96103.38;;;5.19;100.00
11621;BME280;5866;49.094;11.900;2023-04-26T01:44:11;96115.28;;;5.23;100.00
11621;BME280;5866;49.094;11.900;2023-04-26T01:46:38;96107.78;;;5.18;100.00
11621;BME280;5866;49.094;11.900;2023-04-26T01:49:06;96118.06;;;5.01;100.00
11621;BME280;5866;49.094;11.900;2023-04-26T01:51:33;96107.66;;;4.90;100.00
11621;BME280;5866;49.094;11.900;2023-04-26T01:54:02;96108.38;;;4.92;100.00
11621;BME280;5866;49.094;11.900;2023-04-26T01:56:29;96113.31;;;4.85;100.00
11621;BME280;5866;49.094;11.900;2023-04-26T01:58:58;96109.59;;;4.88;100.00
11621;BME280;5866;49.094;11.900;2023-04-26T02:01:25;96115.41;;;4.91;100.00
11621;BME280;5866;49.094;11.900;2023-04-26T02:03:53;96111.19;;;4.79;100.00
11621;BME280;5866;49.094;11.900;2023-04-26T02:06:20;96111.00;;;4.92;100.00
11621;BME280;5866;49.094;11.900;2023-04-26T02:08:48;96115.56;;;4.90;100.00
11621;BME280;5866;49.094;11.900;2023-04-26T02:11:16;96114.53;;;4.81;100.00
11621;BME280;5866;49.094;11.900;2023-04-26T02:13:43;96111.66;;;4.63;100.00
11621;BME280;5866;49.094;11.900;2023-04-26T02:16:12;96117.00;;;3.46;100.00
11621;BME280;5866;49.094;11.900;2023-04-26T02:18:41;96123.00;;;3.69;100.00
11621;BME280;5866;49.094;11.900;2023-04-26T02:21:09;96116.25;;;4.30;100.00
11621;BME280;5866;49.094;11.900;2023-04-26T02:23:37;96113.25;;;4.55;100.00
11621;BME280;5866;49.094;11.900;2023-04-26T02:26:05;96114.16;;;4.65;100.00
11621;BME280;5866;49.094;11.900;2023-04-26T02:28:33;96120.56;;;4.72;100.00
11621;BME280;5866;49.094;11.900;2023-04-26T02:31:00;96116.00;;;4.01;100.00
11621;BME280;5866;49.094;11.900;2023-04-26T02:33:29;96110.53;;;3.61;100.00
11621;BME280;5866;49.094;11.900;2023-04-26T02:35:57;96123.69;;;3.17;100.00
11621;BME280;5866;49.094;11.900;2023-04-26T02:38:24;96125.94;;;3.10;100.00
11621;BME280;5866;49.094;11.900;2023-04-26T02:40:57;96118.31;;;3.94;100.00
11621;BME280;5866;49.094;11.900;2023-04-26T02:43:24;96118.34;;;4.36;100.00
11621;BME280;5866;49.094;11.900;2023-04-26T02:45:52;96113.00;;;4.58;100.00
11621;BME280;5866;49.094;11.900;2023-04-26T02:48:20;96105.00;;;4.59;100.00
11621;BME280;5866;49.094;11.900;2023-04-26T02:50:48;96107.69;;;4.69;100.00
11621;BME280;5866;49.094;11.900;2023-04-26T02:53:16;96114.16;;;4.65;100.00
11621;BME280;5866;49.094;11.900;2023-04-26T02:55:44;96115.28;;;4.72;100.00
11621;BME280;5866;49.094;11.900;2023-04-26T02:58:11;96115.06;;;4.75;100.00
11621;BME280;5866;49.094;11.900;2023-04-26T03:00:44;96109.66;;;4.76;100.00
11621;BME280;5866;49.094;11.900;2023-04-26T03:03:12;96112.16;;;4.78;100.00
11621;BME280;5866;49.094;11.900;2023-04-26T03:05:40;96113.13;;;4.77;100.00
11621;BME280;5866;49.094;11.900;2023-04-26T03:08:09;96111.66;;;4.63;100.00
11621;BME280;5866;49.094;11.900;2023-04-26T03:10:36;96121.44;;;4.41;100.00
11621;BME280;5866;49.094;11.900;2023-04-26T03:13:04;96128.88;;;4.77;100.00
11621;BME280;5866;49.094;11.900;2023-04-26T03:15:32;96127.28;;;4.86;100.00
11621;BME280;5866;49.094;11.900;2023-04-26T03:18:00;96127.84;;;4.89;100.00
11621;BME280;5866;49.094;11.900;2023-04-26T03:20:27;96125.16;;;4.59;100.00
11621;BME280;5866;49.094;11.900;2023-04-26T03:22:55;96132.16;;;4.90;100.00
11621;BME280;5866;49.094;11.900;2023-04-26T03:25:23;96127.53;;;4.62;100.00
11621;BME280;5866;49.094;11.900;2023-04-26T03:27:51;96125.59;;;4.84;100.00
11621;BME280;5866;49.094;11.900;2023-04-26T03:30:19;96131.25;;;4.07;100.00
11621;BME280;5866;49.094;11.900;2023-04-26T03:32:46;96132.38;;;3.93;100.00
11621;BME280;5866;49.094;11.900;2023-04-26T03:35:14;96131.75;;;4.53;100.00
11621;BME280;5866;49.094;11.900;2023-04-26T03:37:43;96128.06;;;4.35;100.00
11621;BME280;5866;49.094;11.900;2023-04-26T03:40:11;96120.16;;;4.15;100.00
11621;BME280;5866;49.094;11.900;2023-04-26T03:42:40;96130.63;;;4.88;100.00
11621;BME280;5866;49.094;11.900;2023-04-26T03:45:08;96129.44;;;5.31;100.00
11621;BME280;5866;49.094;11.900;2023-04-26T03:47:36;96132.53;;;5.46;100.00
11621;BME280;5866;49.094;11.900;2023-04-26T03:50:05;96136.47;;;5.21;100.00
11621;BME280;5866;49.094;11.900;2023-04-26T03:52:33;96144.47;;;5.20;100.00
11621;BME280;5866;49.094;11.900;2023-04-26T03:55:01;96149.91;;;4.04;100.00
11621;BME280;5866;49.094;11.900;2023-04-26T03:57:28;96144.84;;;3.69;100.00
11621;BME280;5866;49.094;11.900;2023-04-26T03:59:57;96145.03;;;4.52;100.00
11621;BME280;5866;49.094;11.900;2023-04-26T04:02:25;96139.25;;;4.99;100.00
11621;BME280;5866;49.094;11.900;2023-04-26T04:04:52;96142.34;;;5.14;100.00
11621;BME280;5866;49.094;11.900;2023-04-26T04:07:20;96150.91;;;5.06;100.00
11621;BME280;5866;49.094;11.900;2023-04-26T04:09:48;96146.00;;;5.22;100.00
11621;BME280;5866;49.094;11.900;2023-04-26T04:12:15;96145.19;;;5.61;100.00
11621;BME280;5866;49.094;11.900;2023-04-26T04:14:43;96150.88;;;5.67;100.00
11621;BME280;5866;49.094;11.900;2023-04-26T04:17:12;96147.84;;;5.71;100.00
11621;BME280;5866;49.094;11.900;2023-04-26T04:19:39;96140.84;;;5.51;100.00
11621;BME280;5866;49.094;11.900;2023-04-26T04:22:07;96146.41;;;5.48;100.00
11621;BME280;5866;49.094;11.900;2023-04-26T04:24:34;96162.78;;;5.31;100.00
11621;BME280;5866;49.094;11.900;2023-04-26T04:27:02;96159.31;;;5.30;100.00
11621;BME280;5866;49.094;11.900;2023-04-26T04:29:30;96161.00;;;5.31;100.00
11621;BME280;5866;49.094;11.900;2023-04-26T04:31:57;96163.59;;;5.61;100.00
11621;BME280;5866;49.094;11.900;2023-04-26T04:34:27;96161.03;;;5.81;100.00
11621;BME280;5866;49.094;11.900;2023-04-26T04:36:54;96166.22;;;5.92;100.00
11621;BME280;5866;49.094;11.900;2023-04-26T04:39:22;96170.69;;;6.01;100.00
11621;BME280;5866;49.094;11.900;2023-04-26T04:41:49;96159.06;;;6.13;100.00
11621;BME280;5866;49.094;11.900;2023-04-26T04:44:17;96169.88;;;6.29;100.00
11621;BME280;5866;49.094;11.900;2023-04-26T04:46:45;96173.78;;;6.44;100.00
11621;BME280;5866;49.094;11.900;2023-04-26T04:49:12;96165.19;;;6.61;100.00
11621;BME280;5866;49.094;11.900;2023-04-26T04:51:41;96174.88;;;6.80;100.00
11621;BME280;5866;49.094;11.900;2023-04-26T04:54:10;96177.38;;;6.91;100.00
11621;BME280;5866;49.094;11.900;2023-04-26T04:56:38;96175.13;;;6.96;99.42
11621;BME280;5866;49.094;11.900;2023-04-26T04:59:06;96176.81;;;6.87;100.00
11621;BME280;5866;49.094;11.900;2023-04-26T05:01:34;96179.03;;;6.92;99.19
11621;BME280;5866;49.094;11.900;2023-04-26T05:04:02;96173.78;;;6.82;99.76
11621;BME280;5866;49.094;11.900;2023-04-26T05:06:30;96176.81;;;6.87;99.25
11621;BME280;5866;49.094;11.900;2023-04-26T05:08:59;96174.84;;;6.99;100.00
11621;BME280;5866;49.094;11.900;2023-04-26T05:11:27;96177.84;;;7.33;99.57
11621;BME280;5866;49.094;11.900;2023-04-26T05:13:55;96176.38;;;7.57;98.77
11621;BME280;5866;49.094;11.900;2023-04-26T05:16:23;96177.25;;;8.02;94.76
11621;BME280;5866;49.094;11.900;2023-04-26T05:18:51;96178.63;;;8.51;94.96
11621;BME280;5866;49.094;11.900;2023-04-26T05:21:18;96180.88;;;8.99;93.18
11621;BME280;5866;49.094;11.900;2023-04-26T05:23:46;96178.22;;;9.76;93.45
11621;BME280;5866;49.094;11.900;2023-04-26T05:26:15;96181.69;;;10.68;93.91
11621;BME280;5866;49.094;11.900;2023-04-26T05:28:43;96177.06;;;11.43;88.22
11621;BME280;5866;49.094;11.900;2023-04-26T05:31:11;96178.16;;;11.88;85.18
11621;BME280;5866;49.094;11.900;2023-04-26T05:33:38;96176.78;;;12.01;78.54
11621;BME280;5866;49.094;11.900;2023-04-26T05:36:07;96177.69;;;11.85;73.35
11621;BME280;5866;49.094;11.900;2023-04-26T05:38:34;96180.53;;;11.51;69.68
11621;BME280;5866;49.094;11.900;2023-04-26T05:41:03;96178.75;;;11.28;70.56
11621;BME280;5866;49.094;11.900;2023-04-26T05:43:32;96184.53;;;11.31;68.28
11621;BME280;5866;49.094;11.900;2023-04-26T05:45:59;96189.84;;;11.55;70.35
11621;BME280;5866;49.094;11.900;2023-04-26T05:48:27;96186.72;;;12.15;70.50
11621;BME280;5866;49.094;11.900;2023-04-26T05:50:55;96183.00;;;13.30;67.02
11621;BME280;5866;49.094;11.900;2023-04-26T05:53:22;96171.63;;;14.68;58.22
11621;BME280;5866;49.094;11.900;2023-04-26T05:55:50;96174.69;;;15.28;56.03
11621;BME280;5866;49.094;11.900;2023-04-26T05:58:17;96178.28;;;15.63;54.54
11621;BME280;5866;49.094;11.900;2023-04-26T06:00:46;96179.09;;;16.19;53.54
11621;BME280;5866;49.094;11.900;2023-04-26T06:03:13;96177.47;;;17.52;47.49
11621;BME280;5866;49.094;11.900;2023-04-26T06:05:42;96177.97;;;19.27;43.43
11621;BME280;5866;49.094;11.900;2023-04-26T06:08:09;96175.13;;;20.27;40.58
11621;BME280;5866;49.094;11.900;2023-04-26T06:10:36;96177.53;;;19.86;38.32
11621;BME280;5866;49.094;11.900;2023-04-26T06:13:04;96190.16;;;14.90;44.26
11621;BME280;5866;49.094;11.900;2023-04-26T06:15:32;96198.75;;;12.33;49.43
11621;BME280;5866;49.094;11.900;2023-04-26T06:18:01;96207.56;;;10.66;56.01
11621;BME280;5866;49.094;11.900;2023-04-26T06:20:28;96207.97;;;10.29;61.21
11621;BME280;5866;49.094;11.900;2023-04-26T06:22:56;96209.25;;;11.40;55.11
11621;BME280;5866;49.094;11.900;2023-04-26T06:25:23;96210.69;;;10.54;58.31
11621;BME280;5866;49.094;11.900;2023-04-26T06:27:51;96206.88;;;10.48;61.14
11621;BME280;5866;49.094;11.900;2023-04-26T06:30:19;96213.78;;;9.40;64.93
11621;BME280;5866;49.094;11.900;2023-04-26T06:32:47;96220.34;;;8.93;69.26
11621;BME280;5866;49.094;11.900;2023-04-26T06:35:16;96218.97;;;8.89;69.88
11621;BME280;5866;49.094;11.900;2023-04-26T06:37:43;96228.56;;;8.54;71.43
11621;BME280;5866;49.094;11.900;2023-04-26T06:40:11;96231.41;;;7.89;76.00
11621;BME280;5866;49.094;11.900;2023-04-26T06:42:41;96229.28;;;7.92;74.85
11621;BME280;5866;49.094;11.900;2023-04-26T06:45:10;96242.97;;;8.42;73.23
11621;BME280;5866;49.094;11.900;2023-04-26T06:47:37;96245.28;;;7.45;73.76
11621;BME280;5866;49.094;11.900;2023-04-26T06:50:06;96244.81;;;8.05;76.20
11621;BME280;5866;49.094;11.900;2023-04-26T06:52:35;96240.06;;;9.59;68.21
11621;BME280;5866;49.094;11.900;2023-04-26T06:55:03;96233.31;;;10.90;61.67
11621;BME280;5866;49.094;11.900;2023-04-26T06:57:31;96225.09;;;12.51;53.75
11621;BME280;5866;49.094;11.900;2023-04-26T06:59:58;96229.34;;;14.54;49.44
11621;BME280;5866;49.094;11.900;2023-04-26T07:02:26;96227.06;;;16.20;45.62
11621;BME280;5866;49.094;11.900;2023-04-26T07:04:54;96228.56;;;15.32;45.11
11621;BME280;5866;49.094;11.900;2023-04-26T07:07:21;96229.00;;;14.57;46.82
11621;BME280;5866;49.094;11.900;2023-04-26T07:09:51;96229.75;;;16.54;41.39
11621;BME280;5866;49.094;11.900;2023-04-26T07:12:19;96230.00;;;18.64;41.25
11621;BME280;5866;49.094;11.900;2023-04-26T07:14:46;96230.88;;;18.45;38.93
11621;BME280;5866;49.094;11.900;2023-04-26T07:17:14;96226.75;;;18.22;38.21
11621;BME280;5866;49.094;11.900;2023-04-26T07:19:41;96227.00;;;17.75;37.94
11621;BME280;5866;49.094;11.900;2023-04-26T07:22:09;96225.09;;;18.15;37.49
11621;BME280;5866;49.094;11.900;2023-04-26T07:24:37;96226.09;;;17.29;37.99
11621;BME280;5866;49.094;11.900;2023-04-26T07:27:06;96222.16;;;17.25;38.87
11621;BME280;5866;49.094;11.900;2023-04-26T07:29:33;96217.56;;;19.51;37.65
11621;BME280;5866;49.094;11.900;2023-04-26T07:32:01;96226.88;;;18.67;37.09
11621;BME280;5866;49.094;11.900;2023-04-26T07:34:29;96227.63;;;20.12;36.20
11621;BME280;5866;49.094;11.900;2023-04-26T07:36:56;96226.56;;;19.39;35.38
11621;BME280;5866;49.094;11.900;2023-04-26T07:39:24;96230.47;;;18.08;36.08
11621;BME280;5866;49.094;11.900;2023-04-26T07:41:52;96227.75;;;15.46;39.52
11621;BME280;5866;49.094;11.900;2023-04-26T07:44:20;96233.28;;;16.27;38.59
11621;BME280;5866;49.094;11.900;2023-04-26T07:46:48;96226.72;;;17.37;37.05
11621;BME280;5866;49.094;11.900;2023-04-26T07:49:16;96226.47;;;17.13;39.14
11621;BME280;5866;49.094;11.900;2023-04-26T07:51:43;96226.56;;;16.44;36.78
11621;BME280;5866;49.094;11.900;2023-04-26T07:54:11;96229.94;;;13.31;43.07
11621;BME280;5866;49.094;11.900;2023-04-26T07:56:38;96231.41;;;13.11;44.41
11621;BME280;5866;49.094;11.900;2023-04-26T07:59:06;96224.06;;;14.75;39.52
11621;BME280;5866;49.094;11.900;2023-04-26T08:01:35;96227.31;;;13.83;40.72
11621;BME280;5866;49.094;11.900;2023-04-26T08:04:03;96213.97;;;14.27;40.88
11621;BME280;5866;49.094;11.900;2023-04-26T08:06:31;96213.31;;;13.07;42.84
11621;BME280;5866;49.094;11.900;2023-04-26T08:08:59;96225.84;;;12.37;46.51
11621;BME280;5866;49.094;11.900;2023-04-26T08:11:27;96224.16;;;12.74;44.27
11621;BME280;5866;49.094;11.900;2023-04-26T08:13:54;96223.25;;;13.35;44.84
11621;BME280;5866;49.094;11.900;2023-04-26T08:16:22;96224.22;;;15.66;39.55
11621;BME280;5866;49.094;11.900;2023-04-26T08:18:50;96216.38;;;18.46;34.49
11621;BME280;5866;49.094;11.900;2023-04-26T08:21:18;96206.50;;;17.35;35.74
11621;BME280;5866;49.094;11.900;2023-04-26T08:23:45;96223.09;;;15.40;39.36
11621;BME280;5866;49.094;11.900;2023-04-26T08:26:13;96232.53;;;13.39;39.54
11621;BME280;5866;49.094;11.900;2023-04-26T08:28:40;96224.75;;;12.54;42.41
11621;BME280;5866;49.094;11.900;2023-04-26T08:31:08;96227.88;;;9.74;47.09
11621;BME280;5866;49.094;11.900;2023-04-26T08:33:35;96233.78;;;10.77;48.08
11621;BME280;5866;49.094;11.900;2023-04-26T08:36:05;96236.31;;;10.87;46.16
11621;BME280;5866;49.094;11.900;2023-04-26T08:38:33;96227.38;;;11.28;46.57
11621;BME280;5866;49.094;11.900;2023-04-26T08:41:04;96246.91;;;9.44;51.24
11621;BME280;5866;49.094;11.900;2023-04-26T08:43:32;96244.13;;;8.57;53.39
11621;BME280;5866;49.094;11.900;2023-04-26T08:46:06;96245.19;;;8.82;52.48
11621;BME280;5866;49.094;11.900;2023-04-26T08:48:36;96242.75;;;10.26;50.63
11621;BME280;5866;49.094;11.900;2023-04-26T08:51:06;96235.84;;;12.27;46.66
11621;BME280;5866;49.094;11.900;2023-04-26T08:53:35;96240.72;;;10.62;48.26
11621;BME280;5866;49.094;11.900;2023-04-26T08:56:04;96238.91;;;10.63;49.10
11621;BME280;5866;49.094;11.900;2023-04-26T08:58:33;96246.13;;;10.36;48.51
11621;BME280;5866;49.094;11.900;2023-04-26T09:01:01;96231.25;;;12.05;45.15
11621;BME280;5866;49.094;11.900;2023-04-26T09:03:29;96238.97;;;11.19;48.46
11621;BME280;5866;49.094;11.900;2023-04-26T09:05:57;96237.66;;;11.87;45.53
11621;BME280;5866;49.094;11.900;2023-04-26T09:08:33;96230.97;;;12.77;44.43
11621;BME280;5866;49.094;11.900;2023-04-26T09:11:02;96234.09;;;13.03;44.30
11621;BME280;5866;49.094;11.900;2023-04-26T09:13:30;96231.34;;;12.66;45.73
11621;BME280;5866;49.094;11.900;2023-04-26T09:15:57;96234.69;;;14.10;42.76
11621;BME280;5866;49.094;11.900;2023-04-26T09:18:27;96234.88;;;14.09;43.38
11621;BME280;5866;49.094;11.900;2023-04-26T09:21:03;96230.81;;;14.13;40.94
11621;BME280;5866;49.094;11.900;2023-04-26T09:23:33;96225.75;;;12.53;44.38
11621;BME280;5866;49.094;11.900;2023-04-26T09:26:20;96214.53;;;12.65;42.70
11621;BME280;5866;49.094;11.900;2023-04-26T09:28:48;96223.06;;;11.11;45.84
11621;BME280;5866;49.094;11.900;2023-04-26T09:31:35;96243.41;;;10.28;48.08
11621;BME280;5866;49.094;11.900;2023-04-26T09:34:03;96249.22;;;9.98;46.89
11621;BME280;5866;49.094;11.900;2023-04-26T09:36:30;96236.75;;;10.66;46.28
11621;BME280;5866;49.094;11.900;2023-04-26T09:38:59;96248.41;;;10.31;47.70
11621;BME280;5866;49.094;11.900;2023-04-26T09:41:41;96238.31;;;11.57;47.76
11621;BME280;5866;49.094;11.900;2023-04-26T09:44:20;96234.22;;;12.87;41.87
11621;BME280;5866;49.094;11.900;2023-04-26T09:46:58;96227.00;;;12.73;40.44
11621;BME280;5866;49.094;11.900;2023-04-26T09:49:27;96225.41;;;12.56;42.94
11621;BME280;5866;49.094;11.900;2023-04-26T09:52:02;96225.72;;;11.43;42.79
11621;BME280;5866;49.094;11.900;2023-04-26T09:54:39;96226.06;;;10.34;45.75
11621;BME280;5866;49.094;11.900;2023-04-26T09:57:07;96234.28;;;10.73;47.42
11621;BME280;5866;49.094;11.900;2023-04-26T09:59:42;96220.03;;;11.54;45.23
11621;BME280;5866;49.094;11.900;2023-04-26T10:02:14;96224.72;;;11.68;43.12
11621;BME280;5866;49.094;11.900;2023-04-26T10:04:44;96222.34;;;10.77;45.85
11621;BME280;5866;49.094;11.900;2023-04-26T10:07:13;96235.06;;;9.56;49.04
11621;BME280;5866;49.094;11.900;2023-04-26T10:09:43;96234.09;;;9.91;48.52
11621;BME280;5866;49.094;11.900;2023-04-26T10:12:13;96241.28;;;9.73;49.89
11621;BME280;5866;49.094;11.900;2023-04-26T10:14:43;96235.66;;;9.68;46.49
11621;BME280;5866;49.094;11.900;2023-04-26T10:17:12;96222.88;;;11.12;43.18
11621;BME280;5866;49.094;11.900;2023-04-26T10:19:41;96226.38;;;11.05;44.06
11621;BME280;5866;49.094;11.900;2023-04-26T10:22:14;96211.94;;;12.80;41.10
11621;BME280;5866;49.094;11.900;2023-04-26T10:24:44;96208.63;;;12.55;40.40
11621;BME280;5866;49.094;11.900;2023-04-26T10:27:12;96204.13;;;10.82;40.40
11621;BME280;5866;49.094;11.900;2023-04-26T10:30:05;96213.56;;;12.66;39.65
11621;BME280;5866;49.094;11.900;2023-04-26T10:36:06;96210.03;;;11.88;42.57
11621;BME280;5866;49.094;11.900;2023-04-26T10:38:36;96214.22;;;13.59;41.30
11621;BME280;5866;49.094;11.900;2023-04-26T10:41:31;96198.97;;;12.85;39.04
11621;BME280;5866;49.094;11.900;2023-04-26T10:46:49;96197.31;;;13.29;42.55
11621;BME280;5866;49.094;11.900;2023-04-26T10:49:19;96194.81;;;12.83;40.16
11621;BME280;5866;49.094;11.900;2023-04-26T10:52:11;96193.31;;;13.11;40.64
11621;BME280;5866;49.094;11.900;2023-04-26T10:54:47;96193.31;;;11.56;43.02
11621;BME280;5866;49.094;11.900;2023-04-26T10:57:17;96195.06;;;9.93;46.94
11621;BME280;5866;49.094;11.900;2023-04-26T11:00:14;96204.34;;;9.97;46.26
11621;BME280;5866;49.094;11.900;2023-04-26T11:03:05;96190.84;;;10.82;45.31
11621;BME280;5866;49.094;11.900;2023-04-26T11:08:24;96193.53;;;11.30;43.01
11621;BME280;5866;49.094;11.900;2023-04-26T11:11:06;96186.31;;;12.26;44.64
11621;BME280;5866;49.094;11.900;2023-04-26T11:13:39;96175.34;;;12.29;42.35
11621;BME280;5866;49.094;11.900;2023-04-26T11:16:08;96183.75;;;10.24;45.01
11621;BME280;5866;49.094;11.900;2023-04-26T11:18:37;96183.25;;;11.11;45.16
11621;BME280;5866;49.094;11.900;2023-04-26T11:21:05;96190.84;;;10.82;45.26
11621;BME280;5866;49.094;11.900;2023-04-26T11:23:33;96193.16;;;10.69;45.98
11621;BME280;5866;49.094;11.900;2023-04-26T11:26:03;96193.16;;;11.33;46.50
11621;BME280;5866;49.094;11.900;2023-04-26T11:28:31;96190.16;;;11.60;43.27
11621;BME280;5866;49.094;11.900;2023-04-26T11:31:01;96188.25;;;12.40;44.36
11621;BME280;5866;49.094;11.900;2023-04-26T11:33:29;96175.50;;;13.48;39.05
11621;BME280;5866;49.094;11.900;2023-04-26T11:35:59;96182.06;;;12.09;41.43
11621;BME280;5866;49.094;11.900;2023-04-26T11:38:27;96179.22;;;10.75;44.19
11621;BME280;5866;49.094;11.900;2023-04-26T11:40:56;96189.22;;;11.05;44.26
11621;BME280;5866;49.094;11.900;2023-04-26T11:43:29;96186.88;;;11.26;44.94
11621;BME280;5866;49.094;11.900;2023-04-26T11:46:02;96184.06;;;11.11;43.88
11621;BME280;5866;49.094;11.900;2023-04-26T11:48:30;96182.03;;;10.65;45.64
11621;BME280;5866;49.094;11.900;2023-04-26T11:50:59;96195.19;;;10.83;45.51
11621;BME280;5866;49.094;11.900;2023-04-26T11:53:36;96182.38;;;12.52;44.02
11621;BME280;5866;49.094;11.900;2023-04-26T11:56:05;96179.84;;;14.22;40.38
11621;BME280;5866;49.094;11.900;2023-04-26T11:58:39;96179.38;;;13.61;38.56
11621;BME280;5866;49.094;11.900;2023-04-26T12:01:08;96169.13;;;12.06;42.53
11621;BME280;5866;49.094;11.900;2023-04-26T12:03:35;96183.53;;;12.11;42.88
11621;BME280;5866;49.094;11.900;2023-04-26T12:06:04;96177.91;;;12.98;40.12
11621;BME280;5866;49.094;11.900;2023-04-26T12:08:32;96175.53;;;13.26;39.01
11621;BME280;5866;49.094;11.900;2023-04-26T12:11:00;96176.25;;;13.57;37.66
11621;BME280;5866;49.094;11.900;2023-04-26T12:13:28;96175.22;;;13.06;40.13
11621;BME280;5866;49.094;11.900;2023-04-26T12:15:56;96173.47;;;14.67;37.59
11621;BME280;5866;49.094;11.900;2023-04-26T12:18:30;96172.97;;;14.78;38.79
11621;BME280;5866;49.094;11.900;2023-04-26T12:20:59;96170.28;;;12.42;42.67
11621;BME280;5866;49.094;11.900;2023-04-26T12:23:35;96179.41;;;10.81;44.87
11621;BME280;5866;49.094;11.900;2023-04-26T12:26:04;96175.66;;;10.18;45.98
11621;BME280;5866;49.094;11.900;2023-04-26T12:28:32;96178.66;;;10.31;46.72
11621;BME280;5866;49.094;11.900;2023-04-26T12:31:00;96181.59;;;11.10;45.90
11621;BME280;5866;49.094;11.900;2023-04-26T12:33:30;96172.66;;;11.98;44.19
11621;BME280;5866;49.094;11.900;2023-04-26T12:36:05;96165.25;;;13.23;41.67
11621;BME280;5866;49.094;11.900;2023-04-26T12:38:32;96160.34;;;13.12;40.78
11621;BME280;5866;49.094;11.900;2023-04-26T12:41:00;96148.78;;;12.21;41.54
11621;BME280;5866;49.094;11.900;2023-04-26T12:43:27;96159.69;;;12.87;40.15
11621;BME280;5866;49.094;11.900;2023-04-26T12:45:55;96160.66;;;11.15;42.25
11621;BME280;5866;49.094;11.900;2023-04-26T12:48:22;96153.88;;;10.96;44.02
11621;BME280;5866;49.094;11.900;2023-04-26T12:50:51;96149.22;;;10.98;45.41
11621;BME280;5866;49.094;11.900;2023-04-26T12:53:19;96151.88;;;10.82;44.00
11621;BME280;5866;49.094;11.900;2023-04-26T12:55:46;96156.59;;;11.75;45.40
11621;BME280;5866;49.094;11.900;2023-04-26T12:58:14;96150.44;;;12.52;41.35
11621;BME280;5866;49.094;11.900;2023-04-26T13:00:41;96148.50;;;12.38;41.24
11621;BME280;5866;49.094;11.900;2023-04-26T13:03:10;96150.81;;;12.72;39.79
11621;BME280;5866;49.094;11.900;2023-04-26T13:05:40;96152.59;;;11.87;40.81
11621;BME280;5866;49.094;11.900;2023-04-26T13:08:09;96147.72;;;12.38;42.47
11621;BME280;5866;49.094;11.900;2023-04-26T13:10:36;96151.41;;;13.27;41.43
11621;BME280;5866;49.094;11.900;2023-04-26T13:13:05;96138.84;;;12.68;40.71
11621;BME280;5866;49.094;11.900;2023-04-26T13:15:33;96132.03;;;12.65;40.30
11621;BME280;5866;49.094;11.900;2023-04-26T13:18:01;96152.34;;;13.64;40.70
11621;BME280;5866;49.094;11.900;2023-04-26T13:20:29;96153.56;;;13.01;40.42